createdAt,value
2023-02-02T00:00:29.441Z,99367.00
2023-02-02T00:02:58.174Z,99382.00
2023-02-02T00:05:27.468Z,99379.00
2023-02-02T00:07:57.510Z,99375.00
2023-02-02T00:10:26.140Z,99382.00
2023-02-02T00:12:58.023Z,99374.00
2023-02-02T00:15:26.741Z,99373.00
2023-02-02T00:17:55.343Z,99372.00
2023-02-02T00:20:24.978Z,99378.00
2023-02-02T00:22:53.570Z,99372.00
2023-02-02T00:25:24.658Z,99385.00
2023-02-02T00:27:53.483Z,99388.00
2023-02-02T00:30:22.585Z,99381.00
2023-02-02T00:32:53.124Z,99389.00
2023-02-02T00:35:22.621Z,99385.00
2023-02-02T00:37:54.771Z,99385.00
2023-02-02T00:40:25.506Z,99394.00
2023-02-02T00:42:54.433Z,99382.00
2023-02-02T00:45:25.552Z,99383.00
2023-02-02T00:47:56.720Z,99390.00
2023-02-02T00:50:28.864Z,99394.00
2023-02-02T00:53:01.491Z,99385.00
2023-02-02T00:55:33.870Z,99382.00
2023-02-02T00:58:04.255Z,99385.00
2023-02-02T01:00:34.229Z,99379.00
2023-02-02T01:03:04.721Z,99388.00
2023-02-02T01:05:33.582Z,99379.00
2023-02-02T01:08:02.489Z,99375.00
2023-02-02T01:10:34.084Z,99380.00
2023-02-02T01:13:03.041Z,99374.00
2023-02-02T01:15:37.746Z,99380.00
2023-02-02T01:18:09.285Z,99368.00
2023-02-02T01:20:38.170Z,99375.00
2023-02-02T01:23:06.810Z,99370.00
2023-02-02T01:25:39.110Z,99377.00
2023-02-02T01:28:08.064Z,99369.00
2023-02-02T01:30:36.957Z,99372.00
2023-02-02T01:33:05.677Z,99379.00
2023-02-02T01:35:34.306Z,99374.00
2023-02-02T01:38:03.080Z,99384.00
2023-02-02T01:40:31.884Z,99379.00
2023-02-02T01:43:01.888Z,99375.00
2023-02-02T01:45:31.316Z,99381.00
2023-02-02T01:48:02.107Z,99379.00
2023-02-02T01:50:34.465Z,99377.00
2023-02-02T01:53:05.219Z,99383.00
2023-02-02T01:55:37.001Z,99379.00
2023-02-02T01:58:11.991Z,99383.00
2023-02-02T02:00:45.638Z,99376.00
2023-02-02T02:03:20.142Z,99383.00
2023-02-02T02:05:55.028Z,99382.00
2023-02-02T02:08:29.327Z,99387.00
2023-02-02T02:10:59.379Z,99392.00
2023-02-02T02:13:47.517Z,99393.00
2023-02-02T02:16:34.162Z,99393.00
2023-02-02T02:19:35.556Z,99390.00
2023-02-02T02:22:33.993Z,99393.00
2023-02-02T02:25:46.965Z,99397.00
2023-02-02T02:29:04.154Z,99395.00
2023-02-02T02:32:28.444Z,99398.00
2023-02-02T02:35:10.333Z,99401.00
2023-02-02T02:37:48.053Z,99398.00
2023-02-02T02:40:25.481Z,99396.00
2023-02-02T02:43:00.190Z,99408.00
2023-02-02T02:45:30.992Z,99408.00
2023-02-02T02:48:01.517Z,99411.00
2023-02-02T02:50:31.048Z,99408.00
2023-02-02T02:53:09.124Z,99407.00
2023-02-02T02:55:48.882Z,99408.00
2023-02-02T02:58:32.161Z,99418.00
2023-02-02T03:01:20.076Z,99411.00
2023-02-02T03:04:08.363Z,99413.00
2023-02-02T03:06:45.016Z,99421.00
2023-02-02T03:09:20.046Z,99419.00
2023-02-02T03:11:48.791Z,99424.00
2023-02-02T03:14:17.604Z,99423.00
2023-02-02T03:16:46.201Z,99429.00
2023-02-02T03:19:16.233Z,99431.00
2023-02-02T03:21:44.858Z,99431.00
2023-02-02T03:24:13.541Z,99431.00
2023-02-02T03:26:42.492Z,99431.00
2023-02-02T03:29:11.381Z,99431.00
2023-02-02T03:31:40.366Z,99436.00
2023-02-02T03:34:09.081Z,99436.00
2023-02-02T03:36:39.104Z,99428.00
2023-02-02T03:39:07.988Z,99440.00
2023-02-02T03:41:36.929Z,99443.00
2023-02-02T03:44:11.089Z,99444.00
2023-02-02T03:46:40.046Z,99446.00
2023-02-02T03:49:09.478Z,99439.00
2023-02-02T03:51:39.822Z,99441.00
2023-02-02T03:54:08.584Z,99448.00
2023-02-02T03:56:37.292Z,99452.00
2023-02-02T03:59:06.365Z,99453.00
2023-02-02T04:01:38.067Z,99462.00
2023-02-02T04:04:06.949Z,99454.00
2023-02-02T04:06:35.966Z,99462.00
2023-02-02T04:09:07.263Z,99457.00
2023-02-02T04:11:38.871Z,99464.00
2023-02-02T04:14:08.325Z,99460.00
2023-02-02T04:16:41.070Z,99461.00
2023-02-02T04:19:12.912Z,99459.00
2023-02-02T04:21:44.299Z,99464.00
2023-02-02T04:24:17.137Z,99468.00
2023-02-02T04:26:46.027Z,99466.00
2023-02-02T04:29:14.918Z,99470.00
2023-02-02T04:31:43.678Z,99465.00
2023-02-02T04:34:12.623Z,99466.00
2023-02-02T04:36:43.328Z,99477.00
2023-02-02T04:39:15.753Z,99475.00
2023-02-02T04:41:56.366Z,99485.00
2023-02-02T04:44:25.473Z,99482.00
2023-02-02T04:46:59.121Z,99480.00
2023-02-02T04:49:28.043Z,99484.00
2023-02-02T04:52:00.039Z,99490.00
2023-02-02T04:54:40.462Z,99491.00
2023-02-02T04:57:10.283Z,99484.00
2023-02-02T04:59:58.101Z,99486.00
2023-02-02T05:02:27.099Z,99483.00
2023-02-02T05:05:00.399Z,99483.00
2023-02-02T05:07:36.283Z,99492.00
2023-02-02T05:10:25.444Z,99487.00
2023-02-02T05:13:01.576Z,99491.00
2023-02-02T05:15:30.377Z,99493.00
2023-02-02T05:17:59.078Z,99500.00
2023-02-02T05:20:28.074Z,99504.00
2023-02-02T05:22:56.651Z,99507.00
2023-02-02T05:25:26.869Z,99509.00
2023-02-02T05:27:55.701Z,99508.00
2023-02-02T05:30:24.317Z,99516.00
2023-02-02T05:32:53.056Z,99518.00
2023-02-02T05:35:21.783Z,99509.00
2023-02-02T05:37:50.534Z,99519.00
2023-02-02T05:40:19.685Z,99515.00
2023-02-02T05:42:50.963Z,99520.00
2023-02-02T05:45:19.692Z,99524.00
2023-02-02T05:47:48.368Z,99521.00
2023-02-02T05:50:20.167Z,99518.00
2023-02-02T05:52:52.454Z,99516.00
2023-02-02T05:55:22.897Z,99525.00
2023-02-02T05:58:01.315Z,99525.00
2023-02-02T06:00:34.468Z,99535.00
2023-02-02T06:03:03.330Z,99535.00
2023-02-02T06:05:36.213Z,99543.00
2023-02-02T06:08:06.727Z,99543.00
2023-02-02T06:10:36.510Z,99552.00
2023-02-02T06:13:14.922Z,99554.00
2023-02-02T06:15:48.924Z,99556.00
2023-02-02T06:18:23.218Z,99554.00
2023-02-02T06:21:12.770Z,99549.00
2023-02-02T06:23:48.280Z,99564.00
2023-02-02T06:26:29.514Z,99564.00
2023-02-02T06:28:59.735Z,99572.00
2023-02-02T06:31:35.571Z,99571.00
2023-02-02T06:34:24.424Z,99568.00
2023-02-02T06:37:05.947Z,99564.00
2023-02-02T06:39:44.895Z,99570.00
2023-02-02T06:42:21.646Z,99575.00
2023-02-02T06:45:09.688Z,99574.00
2023-02-02T06:47:38.684Z,99572.00
2023-02-02T06:50:08.767Z,99585.00
2023-02-02T06:52:37.464Z,99574.00
2023-02-02T06:55:07.960Z,99578.00
2023-02-02T06:57:36.686Z,99581.00
2023-02-02T07:00:08.621Z,99579.00
2023-02-02T07:02:37.452Z,99585.00
2023-02-02T07:05:07.022Z,99585.00
2023-02-02T07:07:36.931Z,99591.00
2023-02-02T07:10:05.994Z,99589.00
2023-02-02T07:12:35.986Z,99598.00
2023-02-02T07:15:07.371Z,99598.00
2023-02-02T07:17:36.096Z,99605.00
2023-02-02T07:20:05.554Z,99613.00
2023-02-02T07:22:36.954Z,99605.00
2023-02-02T07:25:06.253Z,99608.00
2023-02-02T07:27:34.909Z,99612.00
2023-02-02T07:30:04.140Z,99611.00
2023-02-02T07:32:34.221Z,99613.00
2023-02-02T07:35:02.917Z,99620.00
2023-02-02T07:37:31.959Z,99619.00
2023-02-02T07:40:00.635Z,99622.00
2023-02-02T07:42:29.270Z,99623.00
2023-02-02T07:44:57.975Z,99627.00
2023-02-02T07:47:27.191Z,99623.00
2023-02-02T07:49:57.132Z,99629.00
2023-02-02T07:52:25.865Z,99634.00
2023-02-02T07:55:02.556Z,99632.00
2023-02-02T07:57:41.455Z,99629.00
2023-02-02T08:00:12.007Z,99638.00
2023-02-02T08:02:43.631Z,99639.00
2023-02-02T08:05:14.130Z,99635.00
2023-02-02T08:07:43.467Z,99642.00
2023-02-02T08:10:13.158Z,99644.00
2023-02-02T08:12:41.740Z,99641.00
2023-02-02T08:15:12.650Z,99649.00
2023-02-02T08:17:41.361Z,99646.00
2023-02-02T08:20:13.041Z,99653.00
2023-02-02T08:22:43.267Z,99647.00
2023-02-02T08:25:12.129Z,99655.00
2023-02-02T08:27:40.972Z,99658.00
2023-02-02T08:30:11.813Z,99653.00
2023-02-02T08:32:40.744Z,99667.00
2023-02-02T08:35:10.247Z,99667.00
2023-02-02T08:37:38.864Z,99669.00
2023-02-02T08:40:11.741Z,99667.00
2023-02-02T08:42:41.560Z,99675.00
2023-02-02T08:46:04.382Z,99666.00
2023-02-02T08:48:11.176Z,99678.00
2023-02-02T08:50:41.591Z,99681.00
2023-02-02T08:53:10.640Z,99681.00
2023-02-02T08:55:40.649Z,99679.00
2023-02-02T08:58:10.126Z,99681.00
2023-02-02T09:00:38.947Z,99675.00
2023-02-02T09:03:07.845Z,99674.00
2023-02-02T09:05:45.458Z,99683.00
2023-02-02T09:08:14.129Z,99676.00
2023-02-02T09:10:44.184Z,99678.00
2023-02-02T09:13:12.933Z,99675.00
2023-02-02T09:15:43.113Z,99678.00
2023-02-02T09:18:14.924Z,99679.00
2023-02-02T09:20:44.342Z,99687.00
2023-02-02T09:23:15.570Z,99684.00
2023-02-02T09:25:45.908Z,99689.00
2023-02-02T09:28:14.882Z,99695.00
2023-02-02T09:30:45.111Z,99679.00
2023-02-02T09:33:18.286Z,99689.00
2023-02-02T09:35:48.025Z,99687.00
2023-02-02T09:38:19.907Z,99693.00
2023-02-02T09:40:49.928Z,99695.00
2023-02-02T09:43:50.955Z,99692.00
2023-02-02T09:46:40.518Z,99701.00
2023-02-02T09:49:13.861Z,99704.00
2023-02-02T09:51:50.619Z,99711.00
2023-02-02T09:54:24.327Z,99703.00
2023-02-02T09:56:57.616Z,99707.00
2023-02-02T09:59:34.813Z,99703.00
2023-02-02T10:02:18.896Z,99706.00
2023-02-02T10:04:53.862Z,99708.00
2023-02-02T10:07:33.860Z,99708.00
2023-02-02T10:10:08.104Z,99702.00
2023-02-02T10:12:48.411Z,99708.00
2023-02-02T10:15:26.946Z,99707.00
2023-02-02T10:18:06.075Z,99708.00
2023-02-02T10:20:45.213Z,99708.00
2023-02-02T10:23:26.057Z,99713.00
2023-02-02T10:26:04.994Z,99715.00
2023-02-02T10:28:55.443Z,99709.00
2023-02-02T10:31:50.574Z,99712.00
2023-02-02T10:34:28.335Z,99715.00
2023-02-02T10:37:23.879Z,99714.00
2023-02-02T10:40:16.509Z,99707.00
2023-02-02T10:43:26.828Z,99724.00
2023-02-02T10:45:58.597Z,99727.00
2023-02-02T10:48:35.942Z,99728.00
2023-02-02T10:51:16.138Z,99723.00
2023-02-02T10:53:54.116Z,99728.00
2023-02-02T10:56:32.134Z,99728.00
2023-02-02T10:59:08.367Z,99730.00
2023-02-02T11:01:38.747Z,99734.00
2023-02-02T11:04:25.558Z,99728.00
2023-02-02T11:06:54.398Z,99730.00
2023-02-02T11:09:28.744Z,99732.00
2023-02-02T11:12:05.203Z,99742.00
2023-02-02T11:14:48.393Z,99747.00
2023-02-02T11:17:23.858Z,99749.00
2023-02-02T11:20:00.171Z,99754.00
2023-02-02T11:22:38.511Z,99743.00
2023-02-02T11:25:24.244Z,99754.00
2023-02-02T11:27:53.480Z,99746.00
2023-02-02T11:30:31.474Z,99759.00
2023-02-02T11:33:20.166Z,99754.00
2023-02-02T11:35:56.723Z,99753.00
2023-02-02T11:38:26.443Z,99751.00
2023-02-02T11:40:58.439Z,99757.00
2023-02-02T11:43:31.641Z,99757.00
2023-02-02T11:46:04.617Z,99762.00
2023-02-02T11:48:38.926Z,99763.00
2023-02-02T11:51:24.803Z,99765.00
2023-02-02T11:54:06.661Z,99764.00
2023-02-02T11:56:38.405Z,99768.00
2023-02-02T11:59:07.493Z,99764.00
2023-02-02T12:01:40.079Z,99776.00
2023-02-02T12:04:27.873Z,99775.00
2023-02-02T12:06:57.191Z,99769.00
2023-02-02T12:09:27.804Z,99768.00
2023-02-02T12:12:07.772Z,99771.00
2023-02-02T12:14:50.811Z,99774.00
2023-02-02T12:17:39.004Z,99783.00
2023-02-02T12:20:23.997Z,99776.00
2023-02-02T12:23:17.180Z,99783.00
2023-02-02T12:26:14.041Z,99782.00
2023-02-02T12:29:23.416Z,99784.00
2023-02-02T12:32:13.658Z,99799.00
2023-02-02T12:34:58.311Z,99796.00
2023-02-02T12:37:52.807Z,99797.00
2023-02-02T12:40:42.644Z,99795.00
2023-02-02T12:43:31.467Z,99801.00
2023-02-02T12:46:23.346Z,99804.00
2023-02-02T12:49:17.744Z,99812.00
2023-02-02T12:52:11.518Z,99797.00
2023-02-02T12:55:16.192Z,99801.00
2023-02-02T12:57:56.801Z,99807.00
2023-02-02T13:01:07.614Z,99811.00
2023-02-02T13:04:07.376Z,99808.00
2023-02-02T13:07:20.016Z,99812.00
2023-02-02T13:09:59.520Z,99813.00
2023-02-02T13:12:34.425Z,99819.00
2023-02-02T13:15:07.976Z,99820.00
2023-02-02T13:17:44.477Z,99822.00
2023-02-02T13:20:28.543Z,99826.00
2023-02-02T13:23:03.796Z,99829.00
2023-02-02T13:25:39.030Z,99836.00
2023-02-02T13:28:21.794Z,99835.00
2023-02-02T13:30:54.103Z,99834.00
2023-02-02T13:33:32.668Z,99834.00
2023-02-02T13:36:07.107Z,99839.00
2023-02-02T13:38:42.063Z,99833.00
2023-02-02T13:41:14.855Z,99836.00
2023-02-02T13:43:58.799Z,99849.00
2023-02-02T13:46:37.903Z,99843.00
2023-02-02T13:49:17.216Z,99854.00
2023-02-02T13:52:03.191Z,99855.00
2023-02-02T13:55:35.468Z,99851.00
2023-02-02T13:58:45.771Z,99856.00
2023-02-02T14:01:16.574Z,99857.00
2023-02-02T14:03:53.632Z,99854.00
2023-02-02T14:06:25.563Z,99858.00
2023-02-02T14:08:59.208Z,99864.00
2023-02-02T14:11:32.502Z,99867.00
2023-02-02T14:14:29.373Z,99870.00
2023-02-02T14:17:00.785Z,99871.00
2023-02-02T14:19:58.008Z,99871.00
2023-02-02T14:22:48.005Z,99869.00
2023-02-02T14:26:06.748Z,99873.00
2023-02-02T14:28:51.322Z,99877.00
2023-02-02T14:31:54.412Z,99872.00
2023-02-02T14:34:37.121Z,99880.00
2023-02-02T14:37:52.253Z,99875.00
2023-02-02T14:40:48.573Z,99888.00
2023-02-02T14:43:46.510Z,99893.00
2023-02-02T14:46:35.021Z,99894.00
2023-02-02T14:49:36.592Z,99895.00
2023-02-02T14:52:05.869Z,99894.00
2023-02-02T14:54:42.601Z,99890.00
2023-02-02T14:57:28.550Z,99902.00
2023-02-02T15:00:01.347Z,99908.00
2023-02-02T15:02:39.012Z,99918.00
2023-02-02T15:05:41.863Z,99909.00
2023-02-02T15:08:27.368Z,99916.00
2023-02-02T15:11:25.487Z,99933.00
2023-02-02T15:14:07.549Z,99920.00
2023-02-02T15:16:40.894Z,99922.00
2023-02-02T15:19:24.464Z,99917.00
2023-02-02T15:21:59.673Z,99933.00
2023-02-02T15:24:31.877Z,99933.00
2023-02-02T15:27:04.749Z,99929.00
2023-02-02T15:29:43.214Z,99923.00
2023-02-02T15:36:06.075Z,99945.00
2023-02-02T15:38:41.985Z,99945.00
2023-02-02T15:41:22.450Z,99951.00
2023-02-02T15:43:51.649Z,99953.00
2023-02-02T15:46:26.527Z,99952.00
2023-02-02T15:49:34.410Z,99966.00
2023-02-02T15:52:15.175Z,99963.00
2023-02-02T15:54:57.599Z,99960.00
2023-02-02T15:57:32.430Z,99960.00
2023-02-02T16:00:17.849Z,99968.00
2023-02-02T16:02:48.186Z,99963.00
2023-02-02T16:05:42.997Z,99967.00
2023-02-02T16:08:20.459Z,99972.00
2023-02-02T16:10:50.587Z,99967.00
2023-02-02T16:13:29.847Z,99967.00
2023-02-02T16:16:02.060Z,99972.00
2023-02-02T16:18:31.925Z,99987.00
2023-02-02T16:21:07.926Z,99981.00
2023-02-02T16:23:38.409Z,99978.00
2023-02-02T16:26:13.838Z,99983.00
2023-02-02T16:28:45.032Z,99982.00
2023-02-02T16:31:15.598Z,99980.00
2023-02-02T16:33:46.476Z,99985.00
2023-02-02T16:36:25.525Z,99980.00
2023-02-02T16:38:58.718Z,99984.00
2023-02-02T16:41:33.884Z,99998.00
2023-02-02T16:44:38.246Z,99991.00
2023-02-02T16:47:11.830Z,100004.00
2023-02-02T16:49:40.795Z,100003.00
2023-02-02T16:52:17.326Z,99997.00
2023-02-02T16:54:54.879Z,100015.00
2023-02-02T16:57:34.044Z,100001.00
2023-02-02T17:00:09.236Z,100005.00
2023-02-02T17:02:43.155Z,100003.00
2023-02-02T17:05:24.169Z,100011.00
2023-02-02T17:08:00.601Z,100014.00
2023-02-02T17:10:33.270Z,100009.00
2023-02-02T17:13:25.316Z,100016.00
2023-02-02T17:15:54.254Z,100020.00
2023-02-02T17:18:23.006Z,100023.00
2023-02-02T17:20:57.765Z,100020.00
2023-02-02T17:23:30.131Z,100024.00
2023-02-02T17:25:59.034Z,100027.00
2023-02-02T17:28:29.725Z,100027.00
2023-02-02T17:31:03.858Z,100030.00
2023-02-02T17:33:35.561Z,100025.00
2023-02-02T17:36:05.424Z,100035.00
2023-02-02T17:38:35.051Z,100033.00
2023-02-02T17:41:04.945Z,100036.00
2023-02-02T17:43:36.805Z,100025.00
2023-02-02T17:46:05.790Z,100036.00
2023-02-02T17:48:34.521Z,100027.00
2023-02-02T17:51:07.228Z,100040.00
2023-02-02T17:53:35.827Z,100036.00
2023-02-02T17:56:04.759Z,100041.00
2023-02-02T17:58:34.799Z,100027.00
2023-02-02T18:01:04.885Z,100044.00
2023-02-02T18:03:37.212Z,100041.00
2023-02-02T18:06:06.242Z,100046.00
2023-02-02T18:08:35.248Z,100035.00
2023-02-02T18:11:04.457Z,100041.00
2023-02-02T18:13:34.712Z,100039.00
2023-02-02T18:16:03.463Z,100032.00
2023-02-02T18:18:32.289Z,100047.00
2023-02-02T18:21:01.013Z,100050.00
2023-02-02T18:23:30.385Z,100046.00
2023-02-02T18:26:09.069Z,100049.00
2023-02-02T18:28:40.209Z,100050.00
2023-02-02T18:31:11.045Z,100058.00
2023-02-02T18:33:41.707Z,100057.00
2023-02-02T18:36:15.440Z,100062.00
2023-02-02T18:38:46.294Z,100056.00
2023-02-02T18:41:17.276Z,100055.00
2023-02-02T18:43:48.182Z,100059.00
2023-02-02T18:46:18.650Z,100057.00
2023-02-02T18:48:47.569Z,100053.00
2023-02-02T18:51:19.557Z,100068.00
2023-02-02T18:53:49.397Z,100067.00
2023-02-02T18:56:18.306Z,100063.00
2023-02-02T18:58:48.602Z,100069.00
2023-02-02T19:01:23.381Z,100070.00
2023-02-02T19:03:57.116Z,100067.00
2023-02-02T19:06:44.460Z,100075.00
2023-02-02T19:09:17.243Z,100065.00
2023-02-02T19:11:48.846Z,100069.00
2023-02-02T19:14:24.676Z,100077.00
2023-02-02T19:16:54.449Z,100076.00
2023-02-02T19:19:26.704Z,100076.00
2023-02-02T19:21:58.078Z,100076.00
2023-02-02T19:24:27.961Z,100083.00
2023-02-02T19:27:18.145Z,100074.00
2023-02-02T19:29:51.188Z,100082.00
2023-02-02T19:32:23.571Z,100093.00
2023-02-02T19:34:55.329Z,100087.00
2023-02-02T19:37:27.565Z,100091.00
2023-02-02T19:40:20.203Z,100102.00
2023-02-02T19:42:53.172Z,100097.00
2023-02-02T19:45:28.010Z,100103.00
2023-02-02T19:47:59.296Z,100094.00
2023-02-02T19:50:31.969Z,100097.00
2023-02-02T19:53:02.410Z,100105.00
2023-02-02T19:55:37.575Z,100106.00
2023-02-02T19:58:18.984Z,100099.00
2023-02-02T20:00:51.602Z,100111.00
2023-02-02T20:03:23.478Z,100107.00
2023-02-02T20:05:54.747Z,100104.00
2023-02-02T20:08:27.290Z,100108.00
2023-02-02T20:11:00.683Z,100099.00
2023-02-02T20:13:48.380Z,100115.00
2023-02-02T20:16:21.466Z,100105.00
2023-02-02T20:18:54.189Z,100107.00
2023-02-02T20:21:31.921Z,100109.00
2023-02-02T20:24:00.592Z,100114.00
2023-02-02T20:26:35.795Z,100121.00
2023-02-02T20:29:18.851Z,100115.00
2023-02-02T20:31:50.593Z,100122.00
2023-02-02T20:34:26.525Z,100118.00
2023-02-02T20:36:59.942Z,100125.00
2023-02-02T20:39:35.530Z,100120.00
2023-02-02T20:42:05.538Z,100125.00
2023-02-02T20:44:36.193Z,100118.00
2023-02-02T20:47:08.085Z,100123.00
2023-02-02T20:49:40.299Z,100123.00
2023-02-02T20:52:18.256Z,100124.00
2023-02-02T20:54:46.879Z,100120.00
2023-02-02T20:57:15.501Z,100123.00
2023-02-02T20:59:47.543Z,100119.00
2023-02-02T21:02:19.928Z,100131.00
2023-02-02T21:04:49.435Z,100129.00
2023-02-02T21:07:22.298Z,100138.00
2023-02-02T21:09:52.517Z,100125.00
2023-02-02T21:12:25.398Z,100124.00
2023-02-02T21:14:54.243Z,100126.00
2023-02-02T21:17:24.478Z,100124.00
2023-02-02T21:19:53.174Z,100124.00
2023-02-02T21:22:21.852Z,100118.00
2023-02-02T21:24:50.522Z,100123.00
2023-02-02T21:27:19.177Z,100133.00
2023-02-02T21:29:47.811Z,100126.00
2023-02-02T21:32:16.414Z,100117.00
2023-02-02T21:34:46.390Z,100136.00
2023-02-02T21:37:16.946Z,100121.00
2023-02-02T21:39:51.098Z,100124.00
2023-02-02T21:42:22.244Z,100126.00
2023-02-02T21:44:57.351Z,100122.00
2023-02-02T21:47:34.931Z,100120.00
2023-02-02T21:50:17.247Z,100120.00
2023-02-02T21:52:46.884Z,100127.00
2023-02-02T21:55:36.009Z,100118.00
2023-02-02T21:58:20.136Z,100128.00
2023-02-02T22:00:49.109Z,100127.00
2023-02-02T22:03:34.353Z,100138.00
2023-02-02T22:06:39.150Z,100128.00
2023-02-02T22:09:18.647Z,100132.00
2023-02-02T22:11:51.791Z,100125.00
2023-02-02T22:14:27.304Z,100131.00
2023-02-02T22:16:59.675Z,100142.00
2023-02-02T22:19:35.429Z,100129.00
2023-02-02T22:22:19.519Z,100128.00
2023-02-02T22:24:57.072Z,100132.00
2023-02-02T22:27:28.479Z,100126.00
2023-02-02T22:30:07.887Z,100131.00
2023-02-02T22:32:36.456Z,100129.00
2023-02-02T22:35:05.236Z,100126.00
2023-02-02T22:37:35.224Z,100134.00
2023-02-02T22:40:03.956Z,100135.00
2023-02-02T22:42:32.756Z,100140.00
2023-02-02T22:45:01.314Z,100135.00
2023-02-02T22:47:29.940Z,100140.00
2023-02-02T22:49:58.519Z,100146.00
2023-02-02T22:52:27.106Z,100144.00
2023-02-02T22:54:57.074Z,100144.00
2023-02-02T22:57:25.680Z,100144.00
2023-02-02T22:59:54.377Z,100143.00
2023-02-02T23:02:23.078Z,100150.00
2023-02-02T23:04:51.685Z,100147.00
2023-02-02T23:07:20.291Z,100153.00
2023-02-02T23:09:48.864Z,100151.00
2023-02-02T23:12:18.870Z,100142.00
2023-02-02T23:14:47.507Z,100147.00
2023-02-02T23:17:16.170Z,100147.00
2023-02-02T23:19:44.890Z,100145.00
2023-02-02T23:22:13.495Z,100146.00
2023-02-02T23:24:42.127Z,100143.00
2023-02-02T23:27:10.925Z,100155.00
2023-02-02T23:29:41.281Z,100147.00
2023-02-02T23:32:09.913Z,100156.00
2023-02-02T23:34:38.490Z,100154.00
2023-02-02T23:37:07.172Z,100147.00
2023-02-02T23:39:35.873Z,100149.00
2023-02-02T23:42:04.782Z,100158.00
2023-02-02T23:44:33.390Z,100157.00
2023-02-02T23:47:04.844Z,100157.00
2023-02-02T23:49:34.462Z,100152.00
2023-02-02T23:52:03.146Z,100150.00
2023-02-02T23:54:33.371Z,100143.00
2023-02-02T23:57:03.016Z,100152.00
2023-02-02T23:59:31.696Z,100143.00
